createdAt,value
2017-09-06T00:00:01.510Z,95.40
2017-09-06T00:00:05.759Z,95.10
2017-09-06T00:00:09.985Z,95.10
2017-09-06T00:00:14.235Z,95.10
2017-09-06T00:00:18.504Z,95.10
2017-09-06T00:00:22.757Z,95.10
2017-09-06T00:00:26.973Z,95.10
2017-09-06T00:00:31.251Z,95.10
2017-09-06T00:00:35.503Z,95.10
2017-09-06T00:00:39.733Z,95.10
2017-09-06T00:00:44.753Z,95.20
2017-09-06T00:00:49.017Z,95.10
2017-09-06T00:00:53.270Z,95.10
2017-09-06T00:00:57.552Z,95.10
2017-09-06T00:01:01.773Z,95.10
2017-09-06T00:01:06.018Z,95.10
2017-09-06T00:01:10.272Z,95.20
2017-09-06T00:01:14.505Z,95.20
2017-09-06T00:01:18.762Z,95.20
2017-09-06T00:01:22.989Z,95.20
2017-09-06T00:01:27.260Z,95.20
2017-09-06T00:01:31.756Z,95.20
2017-09-06T00:01:35.995Z,95.20
2017-09-06T00:01:40.226Z,95.20
2017-09-06T00:01:44.459Z,95.20
2017-09-06T00:01:48.703Z,95.20
2017-09-06T00:01:52.961Z,95.20
2017-09-06T00:01:57.255Z,95.20
2017-09-06T00:02:01.497Z,95.20
2017-09-06T00:02:05.751Z,95.20
2017-09-06T00:02:10.012Z,95.20
2017-09-06T00:02:14.255Z,95.20
2017-09-06T00:02:18.487Z,95.20
2017-09-06T00:02:22.740Z,95.20
2017-09-06T00:02:27.004Z,95.20
2017-09-06T00:02:31.262Z,95.20
2017-09-06T00:02:35.537Z,95.20
2017-09-06T00:02:39.743Z,95.20
2017-09-06T00:02:43.993Z,95.20
2017-09-06T00:02:48.257Z,95.20
2017-09-06T00:02:52.507Z,95.20
2017-09-06T00:02:56.772Z,95.20
2017-09-06T00:03:01.033Z,95.20
2017-09-06T00:03:05.270Z,95.20
2017-09-06T00:03:09.511Z,95.20
2017-09-06T00:03:13.762Z,95.20
2017-09-06T00:03:17.988Z,95.20
2017-09-06T00:03:22.228Z,95.10
2017-09-06T00:03:26.464Z,95.10
2017-09-06T00:03:30.717Z,95.10
2017-09-06T00:03:34.965Z,95.10
2017-09-06T00:03:39.246Z,95.00
2017-09-06T00:03:43.499Z,95.00
2017-09-06T00:03:47.775Z,95.00
2017-09-06T00:03:52.006Z,95.00
2017-09-06T00:03:56.254Z,95.00
2017-09-06T00:04:00.477Z,95.00
2017-09-06T00:04:04.718Z,95.00
2017-09-06T00:04:08.953Z,95.00
2017-09-06T00:04:13.185Z,95.00
2017-09-06T00:04:17.431Z,95.00
2017-09-06T00:04:21.693Z,95.00
2017-09-06T00:04:25.977Z,95.00
2017-09-06T00:04:30.223Z,95.10
2017-09-06T00:04:34.474Z,95.00
2017-09-06T00:04:38.722Z,95.00
2017-09-06T00:04:42.991Z,95.00
2017-09-06T00:04:47.239Z,95.00
2017-09-06T00:04:51.504Z,95.00
2017-09-06T00:04:55.728Z,95.10
2017-09-06T00:04:59.980Z,95.10
2017-09-06T00:05:04.228Z,95.10
2017-09-06T00:05:08.479Z,95.10
2017-09-06T00:05:12.737Z,95.10
2017-09-06T00:05:16.987Z,95.10
2017-09-06T00:05:21.233Z,95.00
2017-09-06T00:05:25.491Z,95.00
2017-09-06T00:05:29.725Z,95.00
2017-09-06T00:05:33.971Z,95.00
2017-09-06T00:05:38.205Z,95.00
2017-09-06T00:05:42.458Z,95.00
2017-09-06T00:05:46.685Z,95.00
2017-09-06T00:05:50.949Z,95.10
2017-09-06T00:05:55.196Z,95.40
2017-09-06T00:06:00.215Z,95.10
2017-09-06T00:06:04.497Z,95.10
2017-09-06T00:06:08.740Z,95.10
2017-09-06T00:06:12.988Z,95.10
2017-09-06T00:06:17.236Z,95.10
2017-09-06T00:06:21.489Z,95.10
2017-09-06T00:06:25.724Z,95.10
2017-09-06T00:06:29.946Z,95.10
2017-09-06T00:06:34.189Z,95.10
2017-09-06T00:06:38.433Z,95.00
2017-09-06T00:06:42.666Z,95.00
2017-09-06T00:06:46.889Z,95.00
2017-09-06T00:06:51.145Z,95.10
2017-09-06T00:06:55.405Z,95.10
2017-09-06T00:06:59.634Z,95.10
2017-09-06T00:07:03.869Z,95.10
2017-09-06T00:07:08.136Z,95.10
2017-09-06T00:07:12.377Z,95.10
2017-09-06T00:07:16.628Z,95.20
2017-09-06T00:07:20.899Z,95.20
2017-09-06T00:07:25.141Z,95.20
2017-09-06T00:07:29.392Z,95.20
2017-09-06T00:07:33.642Z,95.20
2017-09-06T00:07:37.874Z,95.20
2017-09-06T00:07:42.137Z,95.20
2017-09-06T00:07:46.374Z,95.20
2017-09-06T00:07:50.645Z,95.20
2017-09-06T00:07:54.886Z,95.20
2017-09-06T00:07:59.121Z,95.20
2017-09-06T00:08:03.418Z,95.20
2017-09-06T00:08:07.656Z,95.20
2017-09-06T00:08:11.940Z,95.20
2017-09-06T00:08:16.169Z,95.20
2017-09-06T00:08:20.408Z,95.50
2017-09-06T00:08:24.636Z,95.20
2017-09-06T00:08:28.889Z,95.20
2017-09-06T00:08:33.138Z,95.20
2017-09-06T00:08:37.380Z,95.20
2017-09-06T00:08:41.605Z,95.20
2017-09-06T00:08:45.876Z,95.20
2017-09-06T00:08:50.107Z,95.50
2017-09-06T00:08:54.355Z,95.20
2017-09-06T00:08:58.585Z,95.20
2017-09-06T00:09:02.875Z,95.20
2017-09-06T00:09:07.907Z,95.20
2017-09-06T00:09:12.148Z,95.20
2017-09-06T00:09:16.391Z,95.20
2017-09-06T00:09:20.643Z,95.30
2017-09-06T00:09:24.884Z,95.30
2017-09-06T00:09:29.106Z,95.30
2017-09-06T00:09:33.353Z,95.30
2017-09-06T00:09:37.591Z,95.30
2017-09-06T00:09:41.874Z,95.30
2017-09-06T00:09:46.129Z,95.30
2017-09-06T00:09:50.368Z,95.30
2017-09-06T00:09:54.629Z,95.30
2017-09-06T00:09:58.895Z,95.20
2017-09-06T00:10:03.136Z,95.30
2017-09-06T00:10:07.370Z,95.30
2017-09-06T00:10:11.627Z,95.30
2017-09-06T00:10:15.845Z,95.30
2017-09-06T00:10:20.094Z,95.30
2017-09-06T00:10:24.360Z,95.30
2017-09-06T00:10:28.601Z,95.30
2017-09-06T00:10:32.872Z,95.30
2017-09-06T00:10:37.120Z,95.30
2017-09-06T00:10:41.369Z,95.30
2017-09-06T00:10:45.620Z,95.30
2017-09-06T00:10:49.879Z,95.40
2017-09-06T00:10:54.150Z,95.70
2017-09-06T00:10:58.408Z,95.40
2017-09-06T00:11:02.651Z,95.40
2017-09-06T00:11:06.899Z,95.40
2017-09-06T00:11:11.149Z,95.40
2017-09-06T00:11:15.399Z,95.40
2017-09-06T00:11:19.643Z,95.40
2017-09-06T00:11:23.887Z,95.40
2017-09-06T00:11:28.129Z,95.40
2017-09-06T00:11:32.402Z,95.40
2017-09-06T00:11:36.626Z,95.60
2017-09-06T00:11:40.869Z,95.40
2017-09-06T00:11:45.170Z,95.40
2017-09-06T00:11:49.408Z,95.50
2017-09-06T00:11:53.677Z,95.50
2017-09-06T00:11:57.906Z,95.40
2017-09-06T00:12:02.151Z,95.40
2017-09-06T00:12:06.389Z,95.40
2017-09-06T00:12:10.636Z,95.50
2017-09-06T00:12:14.870Z,95.40
2017-09-06T00:12:19.109Z,95.50
2017-09-06T00:12:23.345Z,95.40
2017-09-06T00:12:27.577Z,95.40
2017-09-06T00:12:31.832Z,95.40
2017-09-06T00:12:36.371Z,95.40
2017-09-06T00:12:40.593Z,95.50
2017-09-06T00:12:44.825Z,95.40
2017-09-06T00:12:49.091Z,95.40
2017-09-06T00:12:53.317Z,95.30
2017-09-06T00:12:57.573Z,95.40
2017-09-06T00:13:02.578Z,95.40
2017-09-06T00:13:06.835Z,95.50
2017-09-06T00:13:11.100Z,95.40
2017-09-06T00:13:15.330Z,95.40
2017-09-06T00:13:19.566Z,95.40
2017-09-06T00:13:23.828Z,95.40
2017-09-06T00:13:28.064Z,95.40
2017-09-06T00:13:32.328Z,95.50
2017-09-06T00:13:36.568Z,95.40
2017-09-06T00:13:40.801Z,95.40
2017-09-06T00:13:45.047Z,95.40
2017-09-06T00:13:49.307Z,95.40
2017-09-06T00:13:53.542Z,95.50
2017-09-06T00:13:57.813Z,95.40
2017-09-06T00:14:02.068Z,95.40
2017-09-06T00:14:06.293Z,95.40
2017-09-06T00:14:10.533Z,95.40
2017-09-06T00:14:14.815Z,95.40
2017-09-06T00:14:19.056Z,95.40
2017-09-06T00:14:23.503Z,95.40
2017-09-06T00:14:27.808Z,95.40
2017-09-06T00:14:32.031Z,95.40
2017-09-06T00:14:36.276Z,95.40
2017-09-06T00:14:40.628Z,95.40
2017-09-06T00:14:44.852Z,95.40
2017-09-06T00:14:49.161Z,95.40
2017-09-06T00:14:53.381Z,95.40
2017-09-06T00:14:57.639Z,95.40
2017-09-06T00:15:01.874Z,95.40
2017-09-06T00:15:06.109Z,95.30
2017-09-06T00:15:10.339Z,95.30
2017-09-06T00:15:14.574Z,95.30
2017-09-06T00:15:18.826Z,95.40
2017-09-06T00:15:23.082Z,95.40
2017-09-06T00:15:27.309Z,95.40
2017-09-06T00:15:31.555Z,95.40
2017-09-06T00:15:35.795Z,95.40
2017-09-06T00:15:40.030Z,95.40
2017-09-06T00:15:44.273Z,95.40
2017-09-06T00:15:48.532Z,95.40
2017-09-06T00:15:52.794Z,95.40
2017-09-06T00:15:57.032Z,95.30
2017-09-06T00:16:01.261Z,95.40
2017-09-06T00:16:05.506Z,95.40
2017-09-06T00:16:09.749Z,95.40
2017-09-06T00:16:13.969Z,95.40
2017-09-06T00:16:18.215Z,95.40
2017-09-06T00:16:22.437Z,95.40
2017-09-06T00:16:26.670Z,95.40
2017-09-06T00:16:30.914Z,95.40
2017-09-06T00:16:35.145Z,95.40
2017-09-06T00:16:39.441Z,95.30
2017-09-06T00:16:43.694Z,95.30
2017-09-06T00:16:47.930Z,95.30
2017-09-06T00:16:52.192Z,95.30
2017-09-06T00:16:56.437Z,95.30
2017-09-06T00:17:00.683Z,95.30
2017-09-06T00:17:04.940Z,95.30
2017-09-06T00:17:09.168Z,95.30
2017-09-06T00:17:13.455Z,95.20
2017-09-06T00:17:17.708Z,95.20
2017-09-06T00:17:21.948Z,95.20
2017-09-06T00:17:26.189Z,95.20
2017-09-06T00:17:30.427Z,95.20
2017-09-06T00:17:34.671Z,95.20
2017-09-06T00:17:39.575Z,95.20
2017-09-06T00:17:43.809Z,95.20
2017-09-06T00:17:48.050Z,95.20
2017-09-06T00:17:52.297Z,95.20
2017-09-06T00:17:56.543Z,95.20
2017-09-06T00:18:00.796Z,95.20
2017-09-06T00:18:05.100Z,95.20
2017-09-06T00:18:09.321Z,95.20
2017-09-06T00:18:13.583Z,95.20
2017-09-06T00:18:17.840Z,95.20
2017-09-06T00:18:22.082Z,95.20
2017-09-06T00:18:27.112Z,95.20
2017-09-06T00:18:31.347Z,95.20
2017-09-06T00:18:35.589Z,95.20
2017-09-06T00:18:39.836Z,95.20
2017-09-06T00:18:44.099Z,95.20
2017-09-06T00:18:49.307Z,95.20
2017-09-06T00:18:53.553Z,95.20
2017-09-06T00:18:57.791Z,95.20
2017-09-06T00:19:02.026Z,95.20
2017-09-06T00:19:06.273Z,95.10
2017-09-06T00:19:10.519Z,95.10
2017-09-06T00:19:14.757Z,95.10
2017-09-06T00:19:19.001Z,95.10
2017-09-06T00:19:23.247Z,95.10
2017-09-06T00:19:27.495Z,95.30
2017-09-06T00:19:31.749Z,95.10
2017-09-06T00:19:36.011Z,95.10
2017-09-06T00:19:40.237Z,95.10
2017-09-06T00:19:44.501Z,95.10
2017-09-06T00:19:48.734Z,95.10
2017-09-06T00:19:52.968Z,95.10
2017-09-06T00:19:57.229Z,95.10
2017-09-06T00:20:01.472Z,95.10
2017-09-06T00:20:05.706Z,95.10
2017-09-06T00:20:09.943Z,95.10
2017-09-06T00:20:14.177Z,95.10
2017-09-06T00:20:18.405Z,95.10
2017-09-06T00:20:23.400Z,95.20
2017-09-06T00:20:27.678Z,95.10
2017-09-06T00:20:31.923Z,95.10
2017-09-06T00:20:36.291Z,95.10
2017-09-06T00:20:40.529Z,95.10
2017-09-06T00:20:44.801Z,95.10
2017-09-06T00:20:49.033Z,95.10
2017-09-06T00:20:53.266Z,95.10
2017-09-06T00:20:57.497Z,95.10
2017-09-06T00:21:01.738Z,95.10
2017-09-06T00:21:05.984Z,95.10
2017-09-06T00:21:10.221Z,95.10
2017-09-06T00:21:14.467Z,95.10
2017-09-06T00:21:18.689Z,95.10
2017-09-06T00:21:22.921Z,95.10
2017-09-06T00:21:27.167Z,95.10
2017-09-06T00:21:31.401Z,95.10
2017-09-06T00:21:35.643Z,95.10
2017-09-06T00:21:39.900Z,95.10
2017-09-06T00:21:44.126Z,95.10
2017-09-06T00:21:48.395Z,95.00
2017-09-06T00:21:52.639Z,95.10
2017-09-06T00:21:56.880Z,95.00
2017-09-06T00:22:01.109Z,95.10
2017-09-06T00:22:05.360Z,95.10
2017-09-06T00:22:09.633Z,95.00
2017-09-06T00:22:13.892Z,95.00
2017-09-06T00:22:18.127Z,95.00
2017-09-06T00:22:22.390Z,95.00
2017-09-06T00:22:26.625Z,95.00
2017-09-06T00:22:30.880Z,94.90
2017-09-06T00:22:35.120Z,94.90
2017-09-06T00:22:39.388Z,94.90
2017-09-06T00:22:43.674Z,94.90
2017-09-06T00:22:47.902Z,94.80
2017-09-06T00:22:52.139Z,94.80
2017-09-06T00:22:56.378Z,94.90
2017-09-06T00:23:00.610Z,94.80
2017-09-06T00:23:04.899Z,94.80
2017-09-06T00:23:09.129Z,94.80
2017-09-06T00:23:13.389Z,94.80
2017-09-06T00:23:17.616Z,94.80
2017-09-06T00:23:21.846Z,94.80
2017-09-06T00:23:26.096Z,94.80
2017-09-06T00:23:30.333Z,94.70
2017-09-06T00:23:34.596Z,94.70
2017-09-06T00:23:38.867Z,94.70
2017-09-06T00:23:43.128Z,94.70
2017-09-06T00:23:47.395Z,94.70
2017-09-06T00:23:51.621Z,94.70
2017-09-06T00:23:55.876Z,94.80
2017-09-06T00:24:00.159Z,94.80
2017-09-06T00:24:04.385Z,94.70
2017-09-06T00:24:08.613Z,94.70
2017-09-06T00:24:12.886Z,94.70
2017-09-06T00:24:17.138Z,94.70
2017-09-06T00:24:21.401Z,94.70
2017-09-06T00:24:25.617Z,94.70
2017-09-06T00:24:29.863Z,94.60
2017-09-06T00:24:34.097Z,94.80
2017-09-06T00:24:38.349Z,94.60
2017-09-06T00:24:42.575Z,94.60
2017-09-06T00:24:46.801Z,94.60
2017-09-06T00:24:51.060Z,94.60
2017-09-06T00:24:55.292Z,94.60
2017-09-06T00:24:59.522Z,94.70
2017-09-06T00:25:04.526Z,94.60
2017-09-06T00:25:08.783Z,94.60
2017-09-06T00:25:13.021Z,94.60
2017-09-06T00:25:17.271Z,94.70
2017-09-06T00:25:21.507Z,94.70
2017-09-06T00:25:25.780Z,94.70
2017-09-06T00:25:30.005Z,94.70
2017-09-06T00:25:34.249Z,94.60
2017-09-06T00:25:38.482Z,94.60
2017-09-06T00:25:42.772Z,94.50
2017-09-06T00:25:47.010Z,94.50
2017-09-06T00:25:51.265Z,94.50
2017-09-06T00:25:55.509Z,94.40
2017-09-06T00:25:59.766Z,94.40
2017-09-06T00:26:04.006Z,94.40
2017-09-06T00:26:08.260Z,94.40
2017-09-06T00:26:12.532Z,94.40
2017-09-06T00:26:16.799Z,94.30
2017-09-06T00:26:21.033Z,94.40
2017-09-06T00:26:25.265Z,94.40
2017-09-06T00:26:29.515Z,94.40
2017-09-06T00:26:33.768Z,94.40
2017-09-06T00:26:38.001Z,94.40
2017-09-06T00:26:42.242Z,94.40
2017-09-06T00:26:47.257Z,94.40
2017-09-06T00:26:51.520Z,94.40
2017-09-06T00:26:55.764Z,94.70
2017-09-06T00:26:59.994Z,94.40
2017-09-06T00:27:04.230Z,94.40
2017-09-06T00:27:08.495Z,94.40
2017-09-06T00:27:12.739Z,94.40
2017-09-06T00:27:16.986Z,94.40
2017-09-06T00:27:21.215Z,94.40
2017-09-06T00:27:25.494Z,94.40
2017-09-06T00:27:29.717Z,94.40
2017-09-06T00:27:34.018Z,94.50
2017-09-06T00:27:38.249Z,94.50
2017-09-06T00:27:42.489Z,94.50
2017-09-06T00:27:46.721Z,94.70
2017-09-06T00:27:51.015Z,94.50
2017-09-06T00:27:55.267Z,94.50
2017-09-06T00:27:59.510Z,94.50
2017-09-06T00:28:03.737Z,94.50
2017-09-06T00:28:08.020Z,94.50
2017-09-06T00:28:12.282Z,94.50
2017-09-06T00:28:16.530Z,94.50
2017-09-06T00:28:20.769Z,94.50
2017-09-06T00:28:25.754Z,94.50
2017-09-06T00:28:29.985Z,94.50
2017-09-06T00:28:34.238Z,94.50
2017-09-06T00:28:38.486Z,94.50
2017-09-06T00:28:42.757Z,94.50
2017-09-06T00:28:46.984Z,94.50
2017-09-06T00:28:51.263Z,94.50
2017-09-06T00:28:55.490Z,94.50
2017-09-06T00:28:59.735Z,94.50
2017-09-06T00:29:03.978Z,94.20
2017-09-06T00:29:08.236Z,94.50
2017-09-06T00:29:12.466Z,94.50
2017-09-06T00:29:16.732Z,94.50
2017-09-06T00:29:20.977Z,94.50
2017-09-06T00:29:25.210Z,94.50
2017-09-06T00:29:29.455Z,94.50
2017-09-06T00:29:33.713Z,94.50
2017-09-06T00:29:37.946Z,94.50
2017-09-06T00:29:42.174Z,94.50
2017-09-06T00:29:46.431Z,94.50
2017-09-06T00:29:50.672Z,94.50
2017-09-06T00:29:54.956Z,94.50
2017-09-06T00:29:59.195Z,94.50
2017-09-06T00:30:03.435Z,94.50
2017-09-06T00:30:07.681Z,94.50
2017-09-06T00:30:11.947Z,94.50
2017-09-06T00:30:16.191Z,94.50
2017-09-06T00:30:20.433Z,94.50
2017-09-06T00:30:24.722Z,94.50
2017-09-06T00:30:28.965Z,94.60
2017-09-06T00:30:33.211Z,94.50
2017-09-06T00:30:37.451Z,94.50
2017-09-06T00:30:41.681Z,94.60
2017-09-06T00:30:45.943Z,94.60
2017-09-06T00:30:50.171Z,94.50
2017-09-06T00:30:54.419Z,94.50
2017-09-06T00:30:58.664Z,94.50
2017-09-06T00:31:02.902Z,94.60
2017-09-06T00:31:07.145Z,94.50
2017-09-06T00:31:11.369Z,94.50
2017-09-06T00:31:15.655Z,94.50
2017-09-06T00:31:19.955Z,94.50
2017-09-06T00:31:24.163Z,94.60
2017-09-06T00:31:28.393Z,94.50
2017-09-06T00:31:32.636Z,94.50
2017-09-06T00:31:36.883Z,94.50
2017-09-06T00:31:41.110Z,94.50
2017-09-06T00:31:45.338Z,94.50
2017-09-06T00:31:49.573Z,94.50
2017-09-06T00:31:53.884Z,94.50
2017-09-06T00:31:58.134Z,94.50
2017-09-06T00:32:02.365Z,94.50
2017-09-06T00:32:06.654Z,94.50
2017-09-06T00:32:10.892Z,94.50
2017-09-06T00:32:15.125Z,94.50
2017-09-06T00:32:19.366Z,94.50
2017-09-06T00:32:23.624Z,94.50
2017-09-06T00:32:27.868Z,94.50
2017-09-06T00:32:32.113Z,94.50
2017-09-06T00:32:36.380Z,94.60
2017-09-06T00:32:40.640Z,94.50
2017-09-06T00:32:44.886Z,94.50
2017-09-06T00:32:49.887Z,94.50
2017-09-06T00:32:54.114Z,94.50
2017-09-06T00:32:58.337Z,94.50
2017-09-06T00:33:02.595Z,94.50
2017-09-06T00:33:06.840Z,94.50
2017-09-06T00:33:11.117Z,94.50
2017-09-06T00:33:15.367Z,94.50
2017-09-06T00:33:19.611Z,94.40
2017-09-06T00:33:23.861Z,94.40
2017-09-06T00:33:28.096Z,94.40
2017-09-06T00:33:32.341Z,94.40
2017-09-06T00:33:36.591Z,94.40
2017-09-06T00:33:40.814Z,94.30
2017-09-06T00:33:45.045Z,94.40
2017-09-06T00:33:49.285Z,94.40
2017-09-06T00:33:53.526Z,94.40
2017-09-06T00:33:57.780Z,94.40
2017-09-06T00:34:02.060Z,94.30
2017-09-06T00:34:06.317Z,94.40
2017-09-06T00:34:10.549Z,94.40
2017-09-06T00:34:14.781Z,94.40
2017-09-06T00:34:19.019Z,94.20
2017-09-06T00:34:23.292Z,94.40
2017-09-06T00:34:27.539Z,94.40
2017-09-06T00:34:31.777Z,94.40
2017-09-06T00:34:36.034Z,94.40
2017-09-06T00:34:40.293Z,94.40
2017-09-06T00:34:45.307Z,94.40
2017-09-06T00:34:49.547Z,94.40
2017-09-06T00:34:53.795Z,94.40
2017-09-06T00:34:58.051Z,94.40
2017-09-06T00:35:02.278Z,94.40
2017-09-06T00:35:06.541Z,94.40
2017-09-06T00:35:10.787Z,94.40
2017-09-06T00:35:15.026Z,94.40
2017-09-06T00:35:19.277Z,94.40
2017-09-06T00:35:23.510Z,94.40
2017-09-06T00:35:27.784Z,94.40
2017-09-06T00:35:32.035Z,94.40
2017-09-06T00:35:36.283Z,94.40
2017-09-06T00:35:40.518Z,94.40
2017-09-06T00:35:44.765Z,94.50
2017-09-06T00:35:49.043Z,94.40
2017-09-06T00:35:53.273Z,94.40
2017-09-06T00:35:57.509Z,94.40
2017-09-06T00:36:01.771Z,94.40
2017-09-06T00:36:06.011Z,94.40
2017-09-06T00:36:10.254Z,94.40
2017-09-06T00:36:14.491Z,94.40
2017-09-06T00:36:18.721Z,94.40
2017-09-06T00:36:22.967Z,94.40
2017-09-06T00:36:27.193Z,94.40
2017-09-06T00:36:31.434Z,94.40
2017-09-06T00:36:35.674Z,94.40
2017-09-06T00:36:39.919Z,94.40
2017-09-06T00:36:44.154Z,94.40
2017-09-06T00:36:48.392Z,94.40
2017-09-06T00:36:52.663Z,94.40
2017-09-06T00:36:56.889Z,94.40
2017-09-06T00:37:01.140Z,94.40
2017-09-06T00:37:05.368Z,94.30
2017-09-06T00:37:09.626Z,94.30
2017-09-06T00:37:13.952Z,94.30
2017-09-06T00:37:18.173Z,94.20
2017-09-06T00:37:22.427Z,94.30
2017-09-06T00:37:26.725Z,94.20
2017-09-06T00:37:30.961Z,94.30
2017-09-06T00:37:35.209Z,94.30
2017-09-06T00:37:39.484Z,94.20
2017-09-06T00:37:43.712Z,94.20
2017-09-06T00:37:47.938Z,94.20
2017-09-06T00:37:52.180Z,94.30
2017-09-06T00:37:56.434Z,94.20
2017-09-06T00:38:00.675Z,94.30
2017-09-06T00:38:04.929Z,94.30
2017-09-06T00:38:09.183Z,94.20
2017-09-06T00:38:13.454Z,94.20
2017-09-06T00:38:17.702Z,94.30
2017-09-06T00:38:21.934Z,94.20
2017-09-06T00:38:26.180Z,94.20
2017-09-06T00:38:30.428Z,94.20
2017-09-06T00:38:34.668Z,94.20
2017-09-06T00:38:38.916Z,94.20
2017-09-06T00:38:43.167Z,94.20
2017-09-06T00:38:47.411Z,94.20
2017-09-06T00:38:51.700Z,94.20
2017-09-06T00:38:55.921Z,94.30
2017-09-06T00:39:00.167Z,94.20
2017-09-06T00:39:04.436Z,94.20
2017-09-06T00:39:08.666Z,94.20
2017-09-06T00:39:12.973Z,94.20
2017-09-06T00:39:17.215Z,94.30
2017-09-06T00:39:21.460Z,94.20
2017-09-06T00:39:25.704Z,94.20
2017-09-06T00:39:29.956Z,94.20
2017-09-06T00:39:34.215Z,94.30
2017-09-06T00:39:38.467Z,94.20
2017-09-06T00:39:42.714Z,94.30
2017-09-06T00:39:47.709Z,94.30
2017-09-06T00:39:52.016Z,94.30
2017-09-06T00:39:56.263Z,94.30
2017-09-06T00:40:00.516Z,94.30
2017-09-06T00:40:04.759Z,94.30
2017-09-06T00:40:09.005Z,94.30
2017-09-06T00:40:13.266Z,94.30
2017-09-06T00:40:17.498Z,94.30
2017-09-06T00:40:21.733Z,94.30
2017-09-06T00:40:25.991Z,94.30
2017-09-06T00:40:30.217Z,94.30
2017-09-06T00:40:34.467Z,94.30
2017-09-06T00:40:38.712Z,94.30
2017-09-06T00:40:42.935Z,94.30
2017-09-06T00:40:47.202Z,94.30
2017-09-06T00:40:51.447Z,94.30
2017-09-06T00:40:55.665Z,94.30
2017-09-06T00:40:59.945Z,94.30
2017-09-06T00:41:04.192Z,94.30
2017-09-06T00:41:08.422Z,94.30
2017-09-06T00:41:12.668Z,94.30
2017-09-06T00:41:16.902Z,94.30
2017-09-06T00:41:21.134Z,94.30
2017-09-06T00:41:25.404Z,94.30
2017-09-06T00:41:29.638Z,94.30
2017-09-06T00:41:34.640Z,94.30
2017-09-06T00:41:38.900Z,94.30
2017-09-06T00:41:43.129Z,94.30
2017-09-06T00:41:47.374Z,94.30
2017-09-06T00:41:51.661Z,94.30
2017-09-06T00:41:55.959Z,94.30
2017-09-06T00:42:00.219Z,94.40
2017-09-06T00:42:04.472Z,94.40
2017-09-06T00:42:08.719Z,94.40
2017-09-06T00:42:12.974Z,94.40
2017-09-06T00:42:17.286Z,94.50
2017-09-06T00:42:21.507Z,94.40
2017-09-06T00:42:25.737Z,94.40
2017-09-06T00:42:30.006Z,94.40
2017-09-06T00:42:34.266Z,94.40
2017-09-06T00:42:38.488Z,94.40
2017-09-06T00:42:42.784Z,94.40
2017-09-06T00:42:47.021Z,94.40
2017-09-06T00:42:51.241Z,94.40
2017-09-06T00:42:55.495Z,94.40
2017-09-06T00:42:59.745Z,94.40
2017-09-06T00:43:03.985Z,94.40
2017-09-06T00:43:08.216Z,94.40
2017-09-06T00:43:12.466Z,94.40
2017-09-06T00:43:16.732Z,94.40
2017-09-06T00:43:20.979Z,94.30
2017-09-06T00:43:25.261Z,94.30
2017-09-06T00:43:29.511Z,94.30
2017-09-06T00:43:33.737Z,94.30
2017-09-06T00:43:38.011Z,94.30
2017-09-06T00:43:42.250Z,94.30
2017-09-06T00:43:46.511Z,94.30
2017-09-06T00:43:50.732Z,94.30
2017-09-06T00:43:55.016Z,94.30
2017-09-06T00:43:59.286Z,94.30
2017-09-06T00:44:03.540Z,94.30
2017-09-06T00:44:07.784Z,94.30
2017-09-06T00:44:12.028Z,94.30
2017-09-06T00:44:16.276Z,94.30
2017-09-06T00:44:20.522Z,94.30
2017-09-06T00:44:24.788Z,94.30
2017-09-06T00:44:29.014Z,94.30
2017-09-06T00:44:33.263Z,94.30
2017-09-06T00:44:37.515Z,94.40
2017-09-06T00:44:41.781Z,94.40
2017-09-06T00:44:46.038Z,94.40
2017-09-06T00:44:50.288Z,94.40
2017-09-06T00:44:54.546Z,94.40
2017-09-06T00:44:58.802Z,94.40
2017-09-06T00:45:03.033Z,94.40
2017-09-06T00:45:07.303Z,94.40
2017-09-06T00:45:11.556Z,94.40
2017-09-06T00:45:15.803Z,94.40
2017-09-06T00:45:20.049Z,94.40
2017-09-06T00:45:24.307Z,94.50
2017-09-06T00:45:28.542Z,94.50
2017-09-06T00:45:32.777Z,94.50
2017-09-06T00:45:37.040Z,94.50
2017-09-06T00:45:41.300Z,94.50
2017-09-06T00:45:45.545Z,94.40
2017-09-06T00:45:49.797Z,94.50
2017-09-06T00:45:54.039Z,94.70
2017-09-06T00:45:58.283Z,94.50
2017-09-06T00:46:02.529Z,94.50
2017-09-06T00:46:06.761Z,94.40
2017-09-06T00:46:11.037Z,94.40
2017-09-06T00:46:15.292Z,94.40
2017-09-06T00:46:19.526Z,94.50
2017-09-06T00:46:23.793Z,94.40
2017-09-06T00:46:28.053Z,94.50
2017-09-06T00:46:33.084Z,94.40
2017-09-06T00:46:37.394Z,94.50
2017-09-06T00:46:41.625Z,94.40
2017-09-06T00:46:45.897Z,94.40
2017-09-06T00:46:50.148Z,94.40
2017-09-06T00:46:54.393Z,94.40
2017-09-06T00:46:58.625Z,94.40
2017-09-06T00:47:02.884Z,94.40
2017-09-06T00:47:07.140Z,94.40
2017-09-06T00:47:11.404Z,94.40
2017-09-06T00:47:15.659Z,94.40
2017-09-06T00:47:19.896Z,94.40
2017-09-06T00:47:24.143Z,94.60
2017-09-06T00:47:28.391Z,94.40
2017-09-06T00:47:32.644Z,94.50
2017-09-06T00:47:36.895Z,94.50
2017-09-06T00:47:41.178Z,94.50
2017-09-06T00:47:45.419Z,94.50
2017-09-06T00:47:49.671Z,94.50
2017-09-06T00:47:53.909Z,94.50
2017-09-06T00:47:58.161Z,94.50
2017-09-06T00:48:02.389Z,94.50
2017-09-06T00:48:06.662Z,94.80
2017-09-06T00:48:10.892Z,94.50
2017-09-06T00:48:15.139Z,94.50
2017-09-06T00:48:19.416Z,94.50
2017-09-06T00:48:23.662Z,94.50
2017-09-06T00:48:27.923Z,94.50
2017-09-06T00:48:32.137Z,94.50
2017-09-06T00:48:36.374Z,94.50
2017-09-06T00:48:40.614Z,94.50
2017-09-06T00:48:44.840Z,94.60
2017-09-06T00:48:49.087Z,94.60
2017-09-06T00:48:53.356Z,94.50
2017-09-06T00:48:57.598Z,94.60
2017-09-06T00:49:01.848Z,94.60
2017-09-06T00:49:06.069Z,94.50
2017-09-06T00:49:10.389Z,94.60
2017-09-06T00:49:14.621Z,94.60
2017-09-06T00:49:18.868Z,94.60
2017-09-06T00:49:23.098Z,94.60
2017-09-06T00:49:27.325Z,94.60
2017-09-06T00:49:31.633Z,94.60
2017-09-06T00:49:35.874Z,94.60
2017-09-06T00:49:40.164Z,94.60
2017-09-06T00:49:44.396Z,94.60
2017-09-06T00:49:48.635Z,94.50
2017-09-06T00:49:52.955Z,94.50
2017-09-06T00:49:57.195Z,94.50
2017-09-06T00:50:01.457Z,94.50
2017-09-06T00:50:05.702Z,94.50
2017-09-06T00:50:09.943Z,94.50
2017-09-06T00:50:14.188Z,94.50
2017-09-06T00:50:18.427Z,94.50
2017-09-06T00:50:22.666Z,94.50
2017-09-06T00:50:26.919Z,94.50
2017-09-06T00:50:31.178Z,94.80
2017-09-06T00:50:35.430Z,94.40
2017-09-06T00:50:39.650Z,94.50
2017-09-06T00:50:43.934Z,94.40
2017-09-06T00:50:48.183Z,94.70
2017-09-06T00:50:52.413Z,94.40
2017-09-06T00:50:56.661Z,94.40
2017-09-06T00:51:00.903Z,94.40
2017-09-06T00:51:05.137Z,94.40
2017-09-06T00:51:09.380Z,94.40
2017-09-06T00:51:13.619Z,94.40
2017-09-06T00:51:17.859Z,94.40
2017-09-06T00:51:22.124Z,94.40
2017-09-06T00:51:26.372Z,94.40
2017-09-06T00:51:30.602Z,94.40
2017-09-06T00:51:34.852Z,94.60
2017-09-06T00:51:39.111Z,94.50
2017-09-06T00:51:43.340Z,94.50
2017-09-06T00:51:47.569Z,94.50
2017-09-06T00:51:51.822Z,94.50
2017-09-06T00:51:56.091Z,94.50
2017-09-06T00:52:00.318Z,94.50
2017-09-06T00:52:04.559Z,94.50
2017-09-06T00:52:08.799Z,94.50
2017-09-06T00:52:13.072Z,94.50
2017-09-06T00:52:17.314Z,94.50
2017-09-06T00:52:21.568Z,94.50
2017-09-06T00:52:25.835Z,94.50
2017-09-06T00:52:30.084Z,94.80
2017-09-06T00:52:34.329Z,94.50
2017-09-06T00:52:38.578Z,94.50
2017-09-06T00:52:42.836Z,94.50
2017-09-06T00:52:47.087Z,94.50
2017-09-06T00:52:51.339Z,94.50
2017-09-06T00:52:55.612Z,94.50
2017-09-06T00:52:59.856Z,94.50
2017-09-06T00:53:04.096Z,94.50
2017-09-06T00:53:08.343Z,94.50
2017-09-06T00:53:12.592Z,94.50
2017-09-06T00:53:16.847Z,94.50
2017-09-06T00:53:21.094Z,94.50
2017-09-06T00:53:25.341Z,94.50
2017-09-06T00:53:29.587Z,94.50
2017-09-06T00:53:33.817Z,94.50
2017-09-06T00:53:38.067Z,94.50
2017-09-06T00:53:42.297Z,94.50
2017-09-06T00:53:46.533Z,94.60
2017-09-06T00:53:50.792Z,94.50
2017-09-06T00:53:55.035Z,94.50
2017-09-06T00:53:59.261Z,94.50
2017-09-06T00:54:03.522Z,94.60
2017-09-06T00:54:08.527Z,94.60
2017-09-06T00:54:12.765Z,94.60
2017-09-06T00:54:17.013Z,94.60
2017-09-06T00:54:21.253Z,94.60
2017-09-06T00:54:25.509Z,94.60
2017-09-06T00:54:29.756Z,94.60
2017-09-06T00:54:33.989Z,94.60
2017-09-06T00:54:39.009Z,94.60
2017-09-06T00:54:43.248Z,94.60
2017-09-06T00:54:47.515Z,94.60
2017-09-06T00:54:51.744Z,94.60
2017-09-06T00:54:55.983Z,94.60